Time;durP1;ratioP1;P1;durP2;ratioP2;P2;SDS_P1;SDS_P2;PMS_P1;PMS_P2;Temp;Humidity;BMP_temperature;BMP_pressure;BME280_temperature;BME280_humidity;BME280_pressure;Samples;Min_cycle;Max_cycle;Signal;HPM_P1;HPM_P2
2022/02/27 00:00:27;;;;;;;27.00;24.85;;;1.80;80.70;;;;;;5074332;28;20197;-72
2022/02/27 00:02:55;;;;;;;22.90;21.40;;;1.80;80.80;;;;;;5074991;28;20229;-71
2022/02/27 00:05:22;;;;;;;24.42;22.35;;;1.80;81.00;;;;;;5074622;28;20287;-72
2022/02/27 00:07:49;;;;;;;24.90;23.20;;;1.80;81.00;;;;;;5074396;28;20205;-72
2022/02/27 00:10:19;;;;;;;23.27;21.67;;;1.70;81.00;;;;;;5074118;28;20218;-72
2022/02/27 00:12:46;;;;;;;24.48;22.70;;;1.70;81.00;;;;;;5074272;28;20216;-72
2022/02/27 00:15:13;;;;;;;25.90;23.65;;;1.60;81.10;;;;;;5074243;28;20197;-72
2022/02/27 00:17:40;;;;;;;23.95;22.15;;;1.60;81.10;;;;;;5074139;28;20669;-72
2022/02/27 00:20:11;;;;;;;23.52;22.02;;;1.60;81.10;;;;;;5073938;28;20203;-72
2022/02/27 00:22:38;;;;;;;23.85;22.10;;;1.60;81.00;;;;;;5074158;28;20277;-72
2022/02/27 00:25:06;;;;;;;24.27;22.80;;;1.50;81.20;;;;;;5074086;28;20206;-72
2022/02/27 00:27:37;;;;;;;23.20;21.13;;;1.50;82.30;;;;;;5073954;28;20198;-71
2022/02/27 00:30:06;;;;;;;24.90;22.75;;;1.40;82.20;;;;;;5073637;28;20199;-72
2022/02/27 00:32:33;;;;;;;24.20;22.30;;;1.40;82.20;;;;;;5073858;28;20218;-72
2022/02/27 00:35:00;;;;;;;23.92;22.10;;;1.40;82.20;;;;;;5074004;28;20229;-72
2022/02/27 00:37:28;;;;;;;24.00;22.13;;;1.40;82.70;;;;;;5073659;28;20286;-72
2022/02/27 00:39:55;;;;;;;23.95;22.00;;;1.40;87.80;;;;;;5073524;28;20298;-72
2022/02/27 00:42:22;;;;;;;126.72;28.17;;;1.40;88.50;;;;;;5073659;28;20698;-72
2022/02/27 00:44:49;;;;;;;23.70;22.02;;;1.40;87.90;;;;;;5072772;28;20286;-72
2022/02/27 00:47:16;;;;;;;22.83;21.17;;;1.40;86.50;;;;;;5073762;28;20650;-72
2022/02/27 00:49:43;;;;;;;23.23;21.40;;;1.40;86.10;;;;;;5073349;28;20738;-72
2022/02/27 00:52:10;;;;;;;317.23;45.08;;;1.40;86.60;;;;;;5073418;28;20274;-72
2022/02/27 00:54:38;;;;;;;23.48;21.60;;;1.40;90.30;;;;;;5073392;28;20242;-72
2022/02/27 00:57:05;;;;;;;23.85;21.35;;;1.40;89.00;;;;;;5073393;28;20682;-72
2022/02/27 00:59:32;;;;;;;22.35;20.75;;;1.40;86.70;;;;;;5073307;28;20544;-72
2022/02/27 01:01:59;;;;;;;23.63;21.85;;;1.40;85.90;;;;;;5073280;28;20305;-72
2022/02/27 01:04:26;;;;;;;24.30;22.52;;;1.30;84.50;;;;;;5073328;28;20651;-72
2022/02/27 01:06:53;;;;;;;23.42;21.48;;;1.30;85.60;;;;;;5073228;28;20559;-71
2022/02/27 01:09:20;;;;;;;22.75;21.08;;;1.30;84.90;;;;;;5072980;28;20202;-72
2022/02/27 01:11:48;;;;;;;22.65;21.15;;;1.30;86.80;;;;;;5072952;28;20227;-72
2022/02/27 01:14:15;;;;;;;23.42;21.63;;;1.30;85.70;;;;;;5073108;28;20289;-72
2022/02/27 01:16:42;;;;;;;23.23;21.35;;;1.30;84.70;;;;;;5073043;28;20194;-72
2022/02/27 01:19:09;;;;;;;23.65;22.08;;;1.40;83.90;;;;;;5072914;28;20624;-72
2022/02/27 01:21:38;;;;;;;23.13;21.63;;;1.30;83.70;;;;;;5072912;28;20757;-71
2022/02/27 01:24:05;;;;;;;23.95;22.00;;;1.30;83.70;;;;;;5072963;28;20206;-72
2022/02/27 01:26:33;;;;;;;22.40;21.00;;;1.20;83.80;;;;;;5072854;28;20751;-72
2022/02/27 01:29:01;;;;;;;23.88;21.67;;;1.20;83.80;;;;;;5072953;28;20310;-72
2022/02/27 01:31:28;;;;;;;22.70;21.20;;;1.20;83.80;;;;;;5072765;28;20219;-72
2022/02/27 01:33:55;;;;;;;23.85;21.98;;;1.20;83.80;;;;;;5072560;28;20213;-72
2022/02/27 01:36:22;;;;;;;23.55;21.85;;;1.20;83.70;;;;;;5072674;28;20198;-72
2022/02/27 01:38:49;;;;;;;24.25;22.40;;;1.30;83.20;;;;;;5072472;28;20203;-72
2022/02/27 01:41:16;;;;;;;24.23;22.17;;;1.20;82.80;;;;;;5072504;28;20299;-72
2022/02/27 01:43:43;;;;;;;23.30;21.70;;;1.10;83.00;;;;;;5072705;28;20322;-72
2022/02/27 01:46:11;;;;;;;24.90;23.20;;;1.00;83.40;;;;;;5072755;28;20200;-72
2022/02/27 01:48:38;;;;;;;23.38;21.67;;;1.00;83.90;;;;;;5072534;28;20201;-72
2022/02/27 01:51:06;;;;;;;23.95;22.30;;;1.00;83.80;;;;;;5072200;28;20238;-72
2022/02/27 01:53:33;;;;;;;25.00;22.95;;;1.00;83.80;;;;;;5072511;28;20692;-71
2022/02/27 01:56:01;;;;;;;23.25;21.85;;;0.90;83.90;;;;;;5072319;28;20204;-71
2022/02/27 01:58:28;;;;;;;23.45;21.85;;;0.80;84.80;;;;;;5072475;28;20221;-71
2022/02/27 02:00:57;;;;;;;22.33;20.52;;;0.80;86.30;;;;;;5072330;28;20214;-72
2022/02/27 02:03:26;;;;;;;24.27;22.45;;;0.70;85.90;;;;;;5072381;28;20202;-72
2022/02/27 02:05:53;;;;;;;24.15;22.17;;;0.80;85.80;;;;;;5072478;28;20291;-72
2022/02/27 02:08:20;;;;;;;24.40;22.58;;;0.80;85.60;;;;;;5072370;28;20230;-72
2022/02/27 02:10:47;;;;;;;23.33;21.42;;;0.80;85.30;;;;;;5072041;28;20770;-72
2022/02/27 02:13:14;;;;;;;24.02;21.95;;;0.80;85.00;;;;;;5072745;28;20291;-72
2022/02/27 02:15:41;;;;;;;23.98;21.83;;;0.80;85.20;;;;;;5072301;28;20210;-71
2022/02/27 02:18:08;;;;;;;24.48;22.70;;;0.70;85.20;;;;;;5072285;28;20281;-72
2022/02/27 02:20:36;;;;;;;22.92;21.23;;;0.70;85.00;;;;;;5072028;28;20202;-72
2022/02/27 02:23:04;;;;;;;23.73;22.20;;;0.70;85.30;;;;;;5072419;28;20281;-72
2022/02/27 02:25:31;;;;;;;24.63;22.00;;;0.60;85.40;;;;;;5072283;28;20290;-72
2022/02/27 02:27:58;;;;;;;23.00;21.20;;;0.70;85.40;;;;;;5072218;28;20238;-72
2022/02/27 02:30:25;;;;;;;23.65;21.80;;;0.70;85.30;;;;;;5071926;28;20280;-72
2022/02/27 02:32:54;;;;;;;23.58;21.75;;;0.60;85.50;;;;;;5072077;28;20313;-72
2022/02/27 02:35:22;;;;;;;23.38;21.77;;;0.50;85.70;;;;;;5072131;28;20210;-72
2022/02/27 02:37:51;;;;;;;23.30;21.38;;;0.50;86.10;;;;;;5072045;28;20199;-71
2022/02/27 02:40:18;;;;;;;23.92;22.13;;;0.60;85.70;;;;;;5072061;28;20235;-72
2022/02/27 02:42:46;;;;;;;23.25;21.55;;;0.50;85.50;;;;;;5071989;28;20218;-72
2022/02/27 02:45:14;;;;;;;23.63;21.92;;;0.50;85.80;;;;;;5072091;28;20284;-72
2022/02/27 02:47:41;;;;;;;22.45;20.85;;;0.50;85.90;;;;;;5072058;28;20209;-72
2022/02/27 02:50:09;;;;;;;24.30;22.00;;;0.40;86.10;;;;;;5071862;28;20285;-71
2022/02/27 02:52:38;;;;;;;24.20;22.00;;;0.40;86.20;;;;;;5071817;28;20309;-71
2022/02/27 02:55:09;;;;;;;23.20;21.60;;;0.40;86.30;;;;;;5072030;28;20206;-71
2022/02/27 02:57:36;;;;;;;22.83;21.13;;;0.40;86.30;;;;;;5071962;28;20285;-71
2022/02/27 03:00:05;;;;;;;23.90;22.10;;;0.40;86.40;;;;;;5071725;28;20202;-72
2022/02/27 03:02:32;;;;;;;24.65;22.02;;;0.40;86.20;;;;;;5071897;28;20212;-72
2022/02/27 03:04:59;;;;;;;22.88;21.23;;;0.40;86.30;;;;;;5071888;28;20212;-71
2022/02/27 03:07:26;;;;;;;22.80;21.10;;;0.30;86.50;;;;;;5072795;28;20204;-72
2022/02/27 03:09:53;;;;;;;22.50;21.00;;;0.30;86.70;;;;;;5075257;28;20203;-71
2022/02/27 03:12:21;;;;;;;23.42;21.50;;;0.30;86.80;;;;;;5075405;28;20675;-71
2022/02/27 03:14:49;;;;;;;24.77;22.77;;;0.30;86.70;;;;;;5075341;28;20198;-72
2022/02/27 03:17:16;;;;;;;24.70;22.30;;;0.30;86.80;;;;;;5075484;28;20655;-71
2022/02/27 03:19:42;;;;;;;24.30;22.55;;;0.20;86.90;;;;;;5075204;28;20284;-72
2022/02/27 03:22:09;;;;;;;23.23;21.52;;;0.20;87.00;;;;;;5075224;28;20735;-72
2022/02/27 03:24:36;;;;;;;24.67;23.02;;;0.20;86.90;;;;;;5075177;28;20195;-72
2022/02/27 03:27:03;;;;;;;23.65;22.13;;;0.30;86.90;;;;;;5075058;28;20208;-72
2022/02/27 03:29:32;;;;;;;25.05;22.75;;;0.30;86.70;;;;;;5074944;28;20198;-71
2022/02/27 03:31:59;;;;;;;24.02;21.88;;;0.20;86.80;;;;;;5075110;28;20221;-72
2022/02/27 03:34:26;;;;;;;23.88;22.15;;;0.20;87.70;;;;;;5074774;28;20281;-71
2022/02/27 03:36:52;;;;;;;24.85;22.70;;;0.20;87.40;;;;;;5075094;28;20563;-72
2022/02/27 03:39:19;;;;;;;24.08;22.35;;;0.30;87.00;;;;;;5074576;28;20199;-71
2022/02/27 03:41:46;;;;;;;25.27;22.98;;;0.20;86.90;;;;;;5074933;28;20220;-72
2022/02/27 03:44:13;;;;;;;24.35;22.35;;;0.20;87.30;;;;;;5074907;28;20203;-71
2022/02/27 03:46:41;;;;;;;377.60;59.45;;;0.10;87.30;;;;;;5074879;28;20280;-71
2022/02/27 03:49:08;;;;;;;25.13;22.85;;;0.10;89.00;;;;;;5074687;28;20242;-72
2022/02/27 03:51:37;;;;;;;25.35;23.40;;;0.10;89.80;;;;;;5074751;28;20233;-71
2022/02/27 03:54:05;;;;;;;23.77;21.92;;;0.10;89.30;;;;;;5074487;28;20210;-71
2022/02/27 03:56:32;;;;;;;22.92;21.17;;;0.20;89.00;;;;;;5074791;28;20276;-71
2022/02/27 03:58:59;;;;;;;22.55;21.02;;;0.30;88.10;;;;;;5074788;28;20650;-71
2022/02/27 04:01:26;;;;;;;23.20;21.73;;;0.20;87.60;;;;;;5074401;28;20647;-71
2022/02/27 04:03:54;;;;;;;23.58;21.73;;;0.10;87.70;;;;;;5074629;28;20194;-71
2022/02/27 04:06:21;;;;;;;22.50;21.02;;;0.10;87.60;;;;;;5074537;28;20194;-71
2022/02/27 04:08:48;;;;;;;23.90;21.95;;;0.00;87.70;;;;;;5074376;28;20233;-71
2022/02/27 04:11:15;;;;;;;23.38;21.45;;;0.00;87.70;;;;;;5074091;28;20321;-71
2022/02/27 04:13:42;;;;;;;24.15;22.40;;;0.10;87.80;;;;;;5074273;28;20198;-71
2022/02/27 04:16:09;;;;;;;23.17;20.98;;;0.10;87.50;;;;;;5074289;28;20198;-72
2022/02/27 04:18:35;;;;;;;23.67;21.65;;;0.10;87.60;;;;;;5074328;28;20199;-71
2022/02/27 04:21:04;;;;;;;23.20;21.15;;;0.00;87.60;;;;;;5073878;28;20715;-72
2022/02/27 04:23:30;;;;;;;25.38;23.23;;;0.00;87.70;;;;;;5074102;28;20561;-71
2022/02/27 04:25:57;;;;;;;22.92;21.20;;;0.00;87.60;;;;;;5074159;28;20208;-72
2022/02/27 04:28:27;;;;;;;23.50;21.35;;;0.00;87.70;;;;;;5074056;28;20201;-71
2022/02/27 04:30:54;;;;;;;23.60;21.55;;;-0.10;87.90;;;;;;5073900;28;20279;-72
2022/02/27 04:33:21;;;;;;;22.77;20.90;;;-0.10;87.80;;;;;;5073464;28;20221;-71
2022/02/27 04:35:47;;;;;;;25.05;23.05;;;-0.10;87.90;;;;;;5073839;28;20194;-71
2022/02/27 04:38:16;;;;;;;25.92;23.90;;;0.00;87.60;;;;;;5073670;28;20204;-72
2022/02/27 04:40:43;;;;;;;26.48;23.73;;;0.00;87.60;;;;;;5073578;28;20633;-72
2022/02/27 04:43:10;;;;;;;24.35;22.73;;;0.00;87.40;;;;;;5073853;28;20567;-71
2022/02/27 04:45:37;;;;;;;23.00;21.38;;;-0.10;87.90;;;;;;5073637;28;20302;-72
2022/02/27 04:48:05;;;;;;;24.80;22.77;;;-0.10;88.10;;;;;;5073567;28;20544;-71
2022/02/27 04:50:32;;;;;;;24.33;22.00;;;-0.20;88.10;;;;;;5073328;28;20197;-71
2022/02/27 04:52:59;;;;;;;27.45;22.95;;;-0.20;88.40;;;;;;5073448;28;20300;-72
2022/02/27 04:55:27;;;;;;;23.80;21.80;;;-0.20;88.10;;;;;;5073429;28;20199;-71
2022/02/27 04:57:54;;;;;;;24.30;22.30;;;-0.20;88.20;;;;;;5073502;28;20659;-71
2022/02/27 05:00:21;;;;;;;24.58;22.95;;;-0.20;88.40;;;;;;5073115;28;20288;-72
2022/02/27 05:02:48;;;;;;;25.33;23.17;;;-0.20;88.50;;;;;;5073176;28;20305;-72
2022/02/27 05:05:15;;;;;;;24.30;22.40;;;-0.20;88.20;;;;;;5073366;28;20666;-71
2022/02/27 05:07:42;;;;;;;24.30;22.13;;;-0.20;88.30;;;;;;5073166;28;20203;-71
2022/02/27 05:10:10;;;;;;;24.30;22.60;;;-0.20;88.30;;;;;;5073077;28;20205;-72
2022/02/27 05:12:39;;;;;;;25.88;23.80;;;-0.30;88.30;;;;;;5073141;28;20280;-72
2022/02/27 05:15:07;;;;;;;23.65;21.55;;;-0.30;88.40;;;;;;5073121;28;20285;-72
2022/02/27 05:17:35;;;;;;;22.80;21.38;;;-0.30;88.20;;;;;;5073145;28;20284;-72
2022/02/27 05:20:03;;;;;;;23.88;22.08;;;-0.30;88.40;;;;;;5072981;28;20198;-71
2022/02/27 05:22:30;;;;;;;23.90;21.88;;;-0.30;88.60;;;;;;5073239;28;20222;-71
2022/02/27 05:24:57;;;;;;;24.67;22.98;;;-0.30;88.70;;;;;;5073089;28;20204;-71
2022/02/27 05:27:24;;;;;;;23.05;21.63;;;-0.40;88.90;;;;;;5073031;28;20667;-71
2022/02/27 05:29:52;;;;;;;24.42;22.55;;;-0.40;89.20;;;;;;5072198;28;20208;-71
2022/02/27 05:32:19;;;;;;;26.40;24.15;;;-0.40;88.90;;;;;;5072838;28;20313;-72
2022/02/27 05:34:46;;;;;;;23.05;21.33;;;-0.40;88.70;;;;;;5072843;28;20237;-71
2022/02/27 05:37:13;;;;;;;25.52;23.33;;;-0.40;88.80;;;;;;5072733;28;20284;-72
2022/02/27 05:39:42;;;;;;;23.13;21.63;;;-0.30;88.80;;;;;;5072359;28;20197;-72
2022/02/27 05:42:09;;;;;;;24.02;22.33;;;-0.40;88.60;;;;;;5072660;28;20213;-72
2022/02/27 05:44:36;;;;;;;23.90;22.17;;;-0.40;88.80;;;;;;5072691;28;20198;-71
2022/02/27 05:47:05;;;;;;;24.05;22.40;;;-0.40;88.70;;;;;;5072661;28;20285;-72
2022/02/27 05:49:32;;;;;;;23.10;21.23;;;-0.40;88.60;;;;;;5072381;28;20285;-72
2022/02/27 05:51:59;;;;;;;23.83;21.77;;;-0.40;88.80;;;;;;5072535;28;20232;-71
2022/02/27 05:54:26;;;;;;;24.58;22.52;;;-0.50;88.90;;;;;;5072431;28;20682;-71
2022/02/27 05:56:53;;;;;;;25.35;23.15;;;-0.50;89.10;;;;;;5072537;28;20202;-71
2022/02/27 05:59:20;;;;;;;23.88;22.08;;;-0.50;89.20;;;;;;5072363;28;20193;-71
2022/02/27 06:01:47;;;;;;;28.70;26.02;;;-0.50;89.40;;;;;;5072386;28;20223;-71
2022/02/27 06:04:15;;;;;;;25.08;23.15;;;-0.50;89.50;;;;;;5072498;28;20207;-71
2022/02/27 06:06:42;;;;;;;24.70;22.52;;;-0.50;89.40;;;;;;5072592;28;20612;-71
2022/02/27 06:09:09;;;;;;;25.65;23.55;;;-0.40;89.20;;;;;;5072211;28;20201;-71
2022/02/27 06:11:37;;;;;;;25.63;23.70;;;-0.40;88.80;;;;;;5072416;28;20222;-71
2022/02/27 06:14:04;;;;;;;24.95;22.60;;;-0.50;89.00;;;;;;5072300;28;20685;-71
2022/02/27 06:16:31;;;;;;;25.33;22.42;;;-0.50;89.20;;;;;;5072440;28;20337;-71
2022/02/27 06:18:58;;;;;;;25.02;22.95;;;-0.50;89.20;;;;;;5072419;28;20198;-71
2022/02/27 06:21:26;;;;;;;25.75;23.75;;;-0.40;89.30;;;;;;5072129;28;20233;-71
2022/02/27 06:23:54;;;;;;;23.95;22.25;;;-0.40;89.20;;;;;;5072218;28;20280;-71
2022/02/27 06:26:20;;;;;;;25.17;23.08;;;-0.40;88.70;;;;;;5072181;28;20685;-71
2022/02/27 06:28:48;;;;;;;24.17;22.35;;;-0.40;88.80;;;;;;5072147;28;21067;-71
2022/02/27 06:31:15;;;;;;;25.55;23.30;;;-0.30;88.90;;;;;;5072045;28;20228;-71
2022/02/27 06:33:42;;;;;;;23.90;21.90;;;-0.40;89.20;;;;;;5072028;28;20257;-72
2022/02/27 06:36:09;;;;;;;26.05;23.80;;;-0.30;89.00;;;;;;5072042;28;20202;-71
2022/02/27 06:38:37;;;;;;;25.50;23.48;;;-0.20;88.70;;;;;;5071956;28;20205;-71
2022/02/27 06:41:04;;;;;;;27.65;25.48;;;-0.10;88.50;;;;;;5071844;28;20221;-72
2022/02/27 06:43:32;;;;;;;26.75;24.40;;;-0.10;88.10;;;;;;5074856;28;20671;-71
2022/02/27 06:45:59;;;;;;;24.67;22.77;;;-0.10;88.00;;;;;;5076052;28;20248;-71
2022/02/27 06:48:26;;;;;;;25.15;23.23;;;-0.10;87.80;;;;;;5075968;28;20198;-72
2022/02/27 06:50:53;;;;;;;24.10;22.48;;;-0.10;87.60;;;;;;5075641;28;20309;-71
2022/02/27 06:53:20;;;;;;;23.77;22.08;;;-0.10;87.80;;;;;;5075636;28;20590;-71
2022/02/27 06:55:50;;;;;;;24.02;22.50;;;-0.10;87.80;;;;;;5075781;28;20330;-72
2022/02/27 06:58:17;;;;;;;27.45;25.27;;;0.00;87.50;;;;;;5075742;28;20230;-71
2022/02/27 07:00:44;;;;;;;26.75;24.65;;;0.00;87.20;;;;;;5075508;28;20201;-71
2022/02/27 07:03:11;;;;;;;25.55;23.35;;;0.00;87.40;;;;;;5075774;28;20197;-71
2022/02/27 07:05:38;;;;;;;28.17;25.88;;;0.00;87.60;;;;;;5075649;28;20213;-71
2022/02/27 07:08:06;;;;;;;26.70;24.75;;;0.00;87.40;;;;;;5075524;28;20286;-71
2022/02/27 07:10:33;;;;;;;28.80;26.25;;;0.00;87.30;;;;;;5075574;28;20203;-71
2022/02/27 07:13:01;;;;;;;26.45;24.15;;;0.10;87.50;;;;;;5075541;28;20231;-71
2022/02/27 07:15:28;;;;;;;28.35;26.20;;;0.20;87.30;;;;;;5075497;28;20237;-71
2022/02/27 07:17:56;;;;;;;26.05;24.05;;;0.20;87.20;;;;;;5075398;28;20227;-71
2022/02/27 07:20:23;;;;;;;26.90;24.70;;;0.30;87.30;;;;;;5075015;28;20209;-71
2022/02/27 07:22:50;;;;;;;24.98;22.80;;;0.40;86.90;;;;;;5075335;28;20215;-72
2022/02/27 07:25:17;;;;;;;27.98;25.60;;;0.40;86.80;;;;;;5075199;28;20653;-72
2022/02/27 07:27:43;;;;;;;26.55;24.55;;;0.50;86.70;;;;;;5075060;28;20668;-72
2022/02/27 07:30:13;;;;;;;26.15;24.20;;;0.60;87.60;;;;;;5074958;28;20659;-71
2022/02/27 07:32:40;;;;;;;29.17;26.73;;;0.70;87.00;;;;;;5074804;28;20245;-71
2022/02/27 07:35:08;;;;;;;27.50;25.30;;;0.80;86.40;;;;;;5075064;28;20325;-71
2022/02/27 07:37:35;;;;;;;28.15;25.67;;;0.70;86.30;;;;;;5074912;28;20732;-71
2022/02/27 07:40:02;;;;;;;27.50;25.50;;;0.70;86.80;;;;;;5074456;28;20210;-71
2022/02/27 07:42:29;;;;;;;26.23;24.20;;;0.80;86.70;;;;;;5074889;28;20272;-72
2022/02/27 07:44:56;;;;;;;27.70;25.38;;;0.90;86.40;;;;;;5074701;28;20197;-71
2022/02/27 07:47:24;;;;;;;28.15;25.45;;;1.10;86.30;;;;;;5074827;28;20216;-72
2022/02/27 07:49:51;;;;;;;26.23;24.13;;;1.20;86.20;;;;;;5074557;28;20716;-71
2022/02/27 07:52:19;;;;;;;27.38;25.17;;;1.30;85.70;;;;;;5074590;28;20769;-71
2022/02/27 07:54:46;;;;;;;26.60;24.38;;;1.40;85.60;;;;;;5074175;28;20206;-71
2022/02/27 07:57:12;;;;;;;29.25;27.10;;;1.50;85.40;;;;;;5074690;28;20199;-72
2022/02/27 07:59:41;;;;;;;28.17;25.77;;;1.60;85.30;;;;;;5074529;28;20192;-72
2022/02/27 08:02:08;;;;;;;28.92;26.52;;;1.70;85.00;;;;;;5074724;28;20227;-71
2022/02/27 08:04:36;;;;;;;27.73;25.38;;;1.90;84.90;;;;;;5074648;28;20197;-72
2022/02/27 08:07:04;;;;;;;29.08;26.70;;;2.00;84.20;;;;;;5074609;28;20196;-72
2022/02/27 08:09:31;;;;;;;27.75;25.02;;;2.10;84.10;;;;;;5074337;28;20290;-72
2022/02/27 08:11:57;;;;;;;29.27;26.98;;;2.30;84.00;;;;;;5074421;28;20220;-72
2022/02/27 08:14:24;;;;;;;27.30;25.40;;;2.40;83.50;;;;;;5074279;28;20314;-72
2022/02/27 08:16:51;;;;;;;30.38;27.88;;;2.50;83.20;;;;;;5074329;28;20199;-72
2022/02/27 08:19:18;;;;;;;28.52;26.33;;;2.50;82.80;;;;;;5074184;28;20231;-72
2022/02/27 08:21:46;;;;;;;28.13;25.90;;;2.50;82.80;;;;;;5074210;28;20716;-72
2022/02/27 08:24:13;;;;;;;29.00;26.80;;;2.70;82.60;;;;;;5074361;28;20199;-71
2022/02/27 08:26:40;;;;;;;26.85;25.05;;;2.90;81.70;;;;;;5074041;28;20752;-71
2022/02/27 08:29:07;;;;;;;29.45;27.27;;;3.00;81.00;;;;;;5073996;28;20283;-72
2022/02/27 08:31:39;;;;;;;29.02;26.58;;;3.10;80.40;;;;;;5074057;28;20732;-72
2022/02/27 08:34:06;;;;;;;27.27;25.48;;;3.10;79.40;;;;;;5073468;28;20224;-72
2022/02/27 08:36:33;;;;;;;26.20;24.35;;;3.20;79.10;;;;;;5074220;28;20288;-71
2022/02/27 08:39:01;;;;;;;27.23;25.42;;;3.30;78.80;;;;;;5073749;28;20205;-72
2022/02/27 08:41:28;;;;;;;26.45;24.55;;;3.60;78.30;;;;;;5073636;28;20220;-72
2022/02/27 08:43:55;;;;;;;27.00;25.00;;;3.70;76.70;;;;;;5073781;28;20677;-72
2022/02/27 08:46:22;;;;;;;26.73;24.92;;;3.80;76.00;;;;;;5073822;28;20276;-72
2022/02/27 08:48:49;;;;;;;28.98;26.77;;;4.00;75.40;;;;;;5073666;28;20202;-72
2022/02/27 08:51:16;;;;;;;26.00;24.30;;;4.10;75.10;;;;;;5073359;28;20701;-72
2022/02/27 08:53:43;;;;;;;26.60;24.90;;;4.30;74.70;;;;;;5073394;28;20214;-72
2022/02/27 08:56:11;;;;;;;26.75;25.05;;;4.50;73.90;;;;;;5073499;28;20223;-72
2022/02/27 08:58:38;;;;;;;27.35;25.55;;;4.70;73.00;;;;;;5073485;28;20289;-72
2022/02/27 09:01:05;;;;;;;27.27;24.90;;;4.80;72.40;;;;;;5073122;28;20221;-72
2022/02/27 09:03:32;;;;;;;26.40;24.70;;;4.90;71.80;;;;;;5073414;28;20674;-72
2022/02/27 09:05:59;;;;;;;26.02;23.77;;;4.90;71.60;;;;;;5072617;28;20578;-72
2022/02/27 09:08:25;;;;;;;26.05;23.90;;;5.00;71.30;;;;;;5073147;28;20739;-72
2022/02/27 09:10:52;;;;;;;27.00;25.10;;;5.20;70.50;;;;;;5072684;28;20215;-72
2022/02/27 09:13:21;;;;;;;25.60;23.90;;;5.40;69.90;;;;;;5073077;28;20222;-72
2022/02/27 09:15:47;;;;;;;26.95;24.85;;;5.50;69.40;;;;;;5073053;28;20206;-72
2022/02/27 09:18:14;;;;;;;26.52;24.42;;;5.40;69.10;;;;;;5073056;28;20240;-72
2022/02/27 09:20:43;;;;;;;26.80;25.00;;;5.40;69.00;;;;;;5072900;28;20296;-72
2022/02/27 09:23:10;;;;;;;25.00;23.30;;;5.40;68.50;;;;;;5073067;28;20206;-72
2022/02/27 09:25:37;;;;;;;25.30;23.60;;;5.40;68.40;;;;;;5072825;28;20197;-72
2022/02/27 09:28:04;;;;;;;25.60;23.60;;;5.40;68.40;;;;;;5072721;28;20208;-72
2022/02/27 09:30:33;;;;;;;25.23;23.65;;;5.30;68.40;;;;;;5072583;28;20203;-72
2022/02/27 09:33:00;;;;;;;25.45;23.75;;;5.50;67.70;;;;;;5072781;28;20230;-72
2022/02/27 09:35:28;;;;;;;26.00;24.25;;;5.70;67.90;;;;;;5072744;28;20202;-72
2022/02/27 09:37:56;;;;;;;25.00;23.30;;;5.80;67.00;;;;;;5072621;28;20201;-72
2022/02/27 09:40:24;;;;;;;27.25;25.27;;;5.90;66.70;;;;;;5072566;28;20679;-72
2022/02/27 09:42:52;;;;;;;25.50;23.90;;;5.80;66.40;;;;;;5072713;28;20292;-72
2022/02/27 09:45:20;;;;;;;26.13;24.33;;;6.00;66.50;;;;;;5072651;28;20206;-72
2022/02/27 09:47:50;;;;;;;25.52;23.92;;;6.10;66.10;;;;;;5072573;28;20201;-72
2022/02/27 09:50:18;;;;;;;25.67;23.77;;;6.00;65.30;;;;;;5072364;28;20743;-71
2022/02/27 09:52:45;;;;;;;24.27;22.85;;;6.00;65.50;;;;;;5072578;28;20232;-72
2022/02/27 09:55:14;;;;;;;24.92;23.13;;;5.90;64.50;;;;;;5072563;28;20205;-72
2022/02/27 09:57:42;;;;;;;24.83;23.10;;;6.10;64.10;;;;;;5072642;28;20207;-72
2022/02/27 10:00:10;;;;;;;24.73;23.00;;;6.30;63.50;;;;;;5072267;28;20297;-72
2022/02/27 10:03:09;;;;;;;24.83;23.40;;;6.60;62.70;;;;;;5072444;28;20219;-72
2022/02/27 10:05:38;;;;;;;24.30;22.90;;;6.60;62.10;;;;;;5072449;28;20211;-72
2022/02/27 10:08:08;;;;;;;25.45;23.85;;;6.50;60.90;;;;;;5072448;28;20220;-72
2022/02/27 10:10:36;;;;;;;23.80;22.40;;;6.50;60.50;;;;;;5072168;28;20269;-72
2022/02/27 10:13:06;;;;;;;24.48;23.08;;;6.80;59.50;;;;;;5072312;28;20221;-72
2022/02/27 10:15:33;;;;;;;24.38;22.73;;;7.10;58.20;;;;;;5072232;28;20231;-72
2022/02/27 10:18:14;;;;;;;23.90;22.38;;;7.30;57.20;;;;;;5076073;28;20668;-72
2022/02/27 10:20:42;;;;;;;24.77;23.27;;;7.20;57.90;;;;;;5076199;28;20677;-72
2022/02/27 10:23:09;;;;;;;23.75;22.25;;;6.90;58.40;;;;;;5076357;28;20602;-72
2022/02/27 10:25:39;;;;;;;25.13;23.55;;;6.90;59.10;;;;;;5076282;28;20199;-72
2022/02/27 10:28:07;;;;;;;24.58;22.88;;;6.70;58.90;;;;;;5076274;28;20198;-72
2022/02/27 10:30:37;;;;;;;23.92;22.35;;;6.80;58.60;;;;;;5076043;28;20202;-72
2022/02/27 10:33:06;;;;;;;25.80;24.17;;;6.70;58.80;;;;;;5075270;28;20669;-72
2022/02/27 10:35:42;;;;;;;24.40;22.83;;;6.70;59.20;;;;;;5076168;28;20573;-72
2022/02/27 10:38:11;;;;;;;24.85;23.35;;;6.90;59.40;;;;;;5075967;28;20294;-72
2022/02/27 10:40:41;;;;;;;24.55;23.15;;;7.10;58.80;;;;;;5076039;28;20238;-72
2022/02/27 10:43:09;;;;;;;24.33;22.75;;;7.30;58.10;;;;;;5076104;28;20226;-72
2022/02/27 10:45:36;;;;;;;25.77;24.17;;;7.30;57.80;;;;;;5075995;28;20615;-72
2022/02/27 10:48:06;;;;;;;24.67;23.08;;;7.40;58.00;;;;;;5075903;28;20195;-72
2022/02/27 10:50:35;;;;;;;23.42;22.02;;;7.60;55.50;;;;;;5075550;28;20569;-72
2022/02/27 10:53:03;;;;;;;22.90;21.60;;;7.60;55.50;;;;;;5075743;28;20298;-72
2022/02/27 10:55:32;;;;;;;23.63;22.00;;;7.70;54.60;;;;;;5075678;28;20585;-72
2022/02/27 10:58:00;;;;;;;23.80;22.40;;;7.60;53.80;;;;;;5075874;28;20299;-72
2022/02/27 11:00:29;;;;;;;23.45;22.10;;;7.40;54.80;;;;;;5075515;28;20203;-72
2022/02/27 11:02:59;;;;;;;24.90;23.30;;;7.30;54.80;;;;;;5075691;28;20301;-72
2022/02/27 11:05:28;;;;;;;24.38;22.70;;;7.60;54.70;;;;;;5075470;28;20206;-72
2022/02/27 11:07:58;;;;;;;24.38;22.77;;;7.30;54.20;;;;;;5075637;28;20295;-72
2022/02/27 11:10:27;;;;;;;23.85;22.45;;;7.30;54.60;;;;;;5075425;28;20743;-72
2022/02/27 11:12:54;;;;;;;24.73;23.10;;;7.60;53.50;;;;;;5075852;28;20221;-72
2022/02/27 11:15:23;;;;;;;23.40;22.10;;;7.60;52.70;;;;;;5075242;28;20397;-72
2022/02/27 11:17:50;;;;;;;23.33;22.02;;;7.40;52.30;;;;;;5075370;28;20200;-72
2022/02/27 11:20:19;;;;;;;23.30;22.05;;;7.20;52.20;;;;;;5075148;28;20273;-72
2022/02/27 11:22:46;;;;;;;23.95;22.55;;;7.30;52.40;;;;;;5075323;28;20238;-72
2022/02/27 11:25:15;;;;;;;23.20;21.80;;;7.20;52.30;;;;;;5075186;28;20231;-72
2022/02/27 11:27:45;;;;;;;23.90;22.58;;;7.10;52.50;;;;;;5074449;28;20666;-72
2022/02/27 11:30:13;;;;;;;24.45;23.13;;;7.30;52.60;;;;;;5074759;28;20207;-72
2022/02/27 11:32:52;;;;;;;24.55;22.98;;;7.30;51.90;;;;;;5074872;28;20222;-72
2022/02/27 11:35:43;;;;;;;24.77;23.40;;;7.60;52.00;;;;;;5075099;28;20791;-72
2022/02/27 11:38:12;;;;;;;23.85;22.52;;;7.80;51.20;;;;;;5074988;28;20294;-72
2022/02/27 11:40:49;;;;;;;23.10;21.58;;;7.80;50.40;;;;;;5074789;28;20667;-72
2022/02/27 11:43:37;;;;;;;24.40;22.90;;;7.50;51.00;;;;;;5075150;28;20300;-72
2022/02/27 11:46:04;;;;;;;25.02;23.40;;;7.40;51.10;;;;;;5074947;28;20199;-72
2022/02/27 11:48:56;;;;;;;23.92;22.52;;;7.20;51.50;;;;;;5074866;28;20202;-72
2022/02/27 11:51:42;;;;;;;23.30;21.90;;;7.60;50.70;;;;;;5074849;28;20223;-72
2022/02/27 11:54:11;;;;;;;24.95;23.65;;;7.80;49.90;;;;;;5074626;28;20218;-72
2022/02/27 11:56:40;;;;;;;24.17;22.67;;;7.90;50.10;;;;;;5074720;28;20199;-72
2022/02/27 11:59:09;;;;;;;24.30;22.90;;;8.00;50.50;;;;;;5074612;28;20203;-72
2022/02/27 12:01:37;;;;;;;23.73;22.33;;;8.10;50.80;;;;;;5074663;28;20242;-72
2022/02/27 12:04:24;;;;;;;25.42;23.88;;;7.90;50.70;;;;;;5074425;28;20196;-72
2022/02/27 12:07:05;;;;;;;24.98;23.48;;;8.10;50.40;;;;;;5074587;28;20203;-72
2022/02/27 12:09:54;;;;;;;24.15;22.75;;;8.20;50.00;;;;;;5074298;28;20192;-72
2022/02/27 12:12:47;;;;;;;23.92;22.63;;;7.90;50.40;;;;;;5074436;28;20223;-72
2022/02/27 12:15:19;;;;;;;24.90;23.50;;;7.80;50.90;;;;;;5071226;28;20220;-72
2022/02/27 12:17:53;;;;;;;24.27;22.52;;;7.90;50.90;;;;;;5074394;28;20207;-72
2022/02/27 12:20:46;;;;;;;24.38;22.88;;;8.30;51.20;;;;;;5074042;28;20286;-72
2022/02/27 12:23:34;;;;;;;26.60;25.10;;;8.40;50.30;;;;;;5074315;28;20204;-72
2022/02/27 12:26:03;;;;;;;23.23;21.90;;;8.60;50.30;;;;;;5073818;28;20200;-72
2022/02/27 12:28:59;;;;;;;24.60;23.00;;;8.70;50.50;;;;;;5073975;28;20196;-72
2022/02/27 12:31:28;;;;;;;24.48;22.98;;;8.70;50.90;;;;;;5073844;28;20220;-72
2022/02/27 12:33:56;;;;;;;24.42;22.92;;;8.80;50.90;;;;;;5073652;28;20207;-72
2022/02/27 12:36:24;;;;;;;24.98;23.30;;;8.50;50.70;;;;;;5073811;28;20574;-72
2022/02/27 12:38:56;;;;;;;26.08;24.45;;;8.30;51.20;;;;;;5073565;28;20202;-72
2022/02/27 12:41:27;;;;;;;24.60;23.20;;;8.50;51.10;;;;;;5073657;28;20216;-72